createdAt,value
2019-05-07T00:00:48.074Z,6.20
2019-05-07T00:03:17.877Z,6.10
2019-05-07T00:05:47.624Z,6.00
2019-05-07T00:08:17.371Z,5.90
2019-05-07T00:10:47.131Z,5.90
2019-05-07T00:13:16.884Z,5.80
2019-05-07T00:15:46.671Z,5.70
2019-05-07T00:18:16.403Z,5.60
2019-05-07T00:20:46.162Z,5.50
2019-05-07T00:23:15.908Z,5.40
2019-05-07T00:25:45.643Z,5.30
2019-05-07T00:28:15.407Z,5.20
2019-05-07T00:30:45.145Z,5.20
2019-05-07T00:33:14.929Z,5.20
2019-05-07T00:35:48.735Z,5.10
2019-05-07T00:38:22.339Z,5.10
2019-05-07T00:40:53.028Z,5.00
2019-05-07T00:43:24.731Z,5.10
2019-05-07T00:45:58.863Z,5.10
2019-05-07T00:48:28.625Z,5.10
2019-05-07T00:51:01.837Z,5.20
2019-05-07T00:53:32.913Z,5.10
2019-05-07T00:56:02.834Z,5.10
2019-05-07T00:58:32.685Z,5.10
2019-05-07T01:01:02.658Z,5.00
2019-05-07T01:03:32.908Z,4.90
2019-05-07T01:06:02.667Z,4.90
2019-05-07T01:08:32.398Z,4.90
2019-05-07T01:11:02.303Z,4.90
2019-05-07T01:13:32.369Z,5.00
2019-05-07T01:16:02.575Z,5.00
2019-05-07T01:18:32.487Z,5.00
2019-05-07T01:21:02.459Z,5.00
2019-05-07T01:23:32.338Z,4.90
2019-05-07T01:26:03.089Z,4.90
2019-05-07T01:28:34.465Z,5.00
2019-05-07T01:31:04.203Z,4.90
2019-05-07T01:33:35.520Z,4.90
2019-05-07T01:36:09.803Z,4.90
2019-05-07T01:38:39.549Z,4.90
2019-05-07T01:41:09.328Z,4.90
2019-05-07T01:43:39.073Z,5.00
2019-05-07T01:46:08.823Z,5.00
2019-05-07T01:48:38.582Z,5.00
2019-05-07T01:51:08.335Z,5.00
2019-05-07T01:53:38.167Z,5.10
2019-05-07T01:56:07.884Z,5.10
2019-05-07T01:58:37.631Z,5.00
2019-05-07T02:01:07.368Z,5.10
2019-05-07T02:03:47.285Z,5.10
2019-05-07T02:06:27.454Z,5.10
2019-05-07T02:09:02.383Z,5.10
2019-05-07T02:11:35.338Z,5.10
2019-05-07T02:14:05.076Z,5.20
2019-05-07T02:16:34.819Z,5.20
2019-05-07T02:19:05.676Z,5.30
2019-05-07T02:21:35.457Z,5.30
2019-05-07T02:24:05.200Z,5.20
2019-05-07T02:26:34.947Z,5.20
2019-05-07T02:29:05.845Z,5.20
2019-05-07T02:31:35.561Z,5.20
2019-05-07T02:34:05.355Z,5.20
2019-05-07T02:36:35.783Z,5.20
2019-05-07T02:39:12.825Z,5.20
2019-05-07T02:41:44.096Z,5.30
2019-05-07T02:44:14.281Z,5.30
2019-05-07T02:46:48.747Z,5.20
2019-05-07T02:49:26.107Z,5.20
2019-05-07T02:51:57.431Z,5.20
2019-05-07T02:54:32.853Z,5.20
2019-05-07T02:57:03.348Z,5.10
2019-05-07T02:59:34.327Z,5.10
2019-05-07T03:02:04.081Z,5.10
2019-05-07T03:04:34.150Z,5.10
2019-05-07T03:07:04.135Z,5.20
2019-05-07T03:09:33.927Z,5.10
2019-05-07T03:12:05.419Z,5.10
2019-05-07T03:14:35.155Z,5.10
2019-05-07T03:17:04.909Z,5.10
2019-05-07T03:19:36.414Z,5.10
2019-05-07T03:22:06.143Z,5.20
2019-05-07T03:24:43.133Z,5.20
2019-05-07T03:27:14.142Z,5.20
2019-05-07T03:29:45.233Z,5.30
2019-05-07T03:32:38.416Z,5.20
2019-05-07T03:35:27.527Z,5.30
2019-05-07T03:37:55.511Z,5.20
2019-05-07T03:40:25.251Z,5.20
2019-05-07T03:42:54.991Z,5.20
2019-05-07T03:45:26.311Z,5.30
2019-05-07T03:48:13.291Z,5.30
2019-05-07T03:50:43.234Z,5.20
2019-05-07T03:53:14.304Z,5.30
2019-05-07T03:55:45.020Z,5.30
2019-05-07T03:58:15.022Z,5.30
2019-05-07T04:00:45.347Z,5.30
2019-05-07T04:03:19.425Z,5.40
2019-05-07T04:05:47.610Z,5.40
2019-05-07T04:08:18.478Z,5.40
2019-05-07T04:10:48.219Z,5.40
2019-05-07T04:13:17.960Z,5.40
2019-05-07T04:15:47.693Z,5.50
2019-05-07T04:18:17.440Z,5.50
2019-05-07T04:20:47.264Z,5.50
2019-05-07T04:23:17.026Z,5.60
2019-05-07T04:25:57.033Z,5.60
2019-05-07T04:28:28.326Z,5.70
2019-05-07T04:30:59.189Z,5.70
2019-05-07T04:33:33.314Z,5.70
2019-05-07T04:36:14.064Z,5.80
2019-05-07T04:38:44.427Z,5.80
2019-05-07T04:41:14.209Z,5.90
2019-05-07T04:43:43.955Z,6.00
2019-05-07T04:46:14.468Z,6.10
2019-05-07T04:48:44.468Z,6.10
2019-05-07T04:51:16.567Z,6.10
2019-05-07T04:53:46.304Z,6.10
2019-05-07T04:56:16.049Z,6.20
2019-05-07T04:58:45.804Z,6.30
2019-05-07T05:01:17.103Z,6.40
2019-05-07T05:03:46.817Z,6.60
2019-05-07T05:06:16.579Z,6.90
2019-05-07T05:08:46.326Z,7.10
2019-05-07T05:11:16.194Z,7.20
2019-05-07T05:13:45.952Z,7.40
2019-05-07T05:16:26.253Z,7.90
2019-05-07T05:18:56.872Z,8.20
2019-05-07T05:21:44.456Z,8.60
2019-05-07T05:24:15.772Z,9.10
2019-05-07T05:26:45.512Z,10.10
2019-05-07T05:29:15.838Z,10.40
2019-05-07T05:31:45.615Z,10.40
2019-05-07T05:34:15.364Z,10.20
2019-05-07T05:36:45.440Z,9.70
2019-05-07T05:39:15.190Z,10.10
2019-05-07T05:41:46.511Z,10.20
2019-05-07T05:44:31.869Z,10.10
2019-05-07T05:47:02.422Z,9.50
2019-05-07T05:49:32.387Z,9.40
2019-05-07T05:52:15.817Z,9.40
2019-05-07T05:54:47.143Z,9.30
2019-05-07T05:57:24.215Z,9.80
2019-05-07T05:59:55.682Z,10.40
2019-05-07T06:02:44.196Z,10.80
2019-05-07T06:05:34.255Z,11.50
2019-05-07T06:08:05.015Z,12.70
2019-05-07T06:10:39.295Z,12.30
2019-05-07T06:13:12.375Z,11.90
2019-05-07T06:15:55.731Z,11.60
2019-05-07T06:18:42.097Z,13.60
2019-05-07T06:21:16.362Z,14.90
2019-05-07T06:23:52.744Z,15.80
2019-05-07T06:26:22.755Z,15.10
2019-05-07T06:29:02.415Z,15.00
2019-05-07T06:31:32.776Z,15.60
2019-05-07T06:34:02.620Z,15.90
2019-05-07T06:36:34.097Z,14.10
2019-05-07T06:39:22.190Z,13.70
2019-05-07T06:42:09.496Z,13.20
2019-05-07T06:44:39.236Z,12.80
2019-05-07T06:47:08.995Z,11.70
2019-05-07T06:49:38.759Z,11.40
2019-05-07T06:52:08.476Z,11.50
2019-05-07T06:54:39.236Z,11.30
2019-05-07T06:57:09.050Z,11.40
2019-05-07T06:59:42.391Z,11.20
2019-05-07T07:02:25.329Z,11.40
2019-05-07T07:04:59.494Z,11.30
2019-05-07T07:07:34.715Z,11.60
2019-05-07T07:10:11.881Z,11.80
2019-05-07T07:12:42.466Z,11.70
2019-05-07T07:15:12.344Z,11.90
2019-05-07T07:17:42.082Z,12.20
2019-05-07T07:20:13.839Z,12.20
2019-05-07T07:22:43.579Z,12.90
2019-05-07T07:25:13.616Z,13.20
2019-05-07T07:27:43.379Z,13.70
2019-05-07T07:30:21.861Z,13.20
2019-05-07T07:32:53.357Z,13.50
2019-05-07T07:35:24.162Z,13.10
2019-05-07T07:37:57.985Z,13.30
2019-05-07T07:40:42.476Z,12.80
2019-05-07T07:43:12.920Z,12.40
2019-05-07T07:45:43.789Z,13.40
2019-05-07T07:48:13.579Z,13.90
2019-05-07T07:50:43.410Z,13.90
2019-05-07T07:53:13.335Z,13.70
2019-05-07T07:55:44.760Z,13.00
2019-05-07T07:58:26.071Z,12.30
2019-05-07T08:01:00.073Z,12.00
2019-05-07T08:03:29.814Z,11.50
2019-05-07T08:05:59.580Z,11.50
2019-05-07T08:08:32.019Z,13.40
2019-05-07T08:11:02.427Z,14.40
2019-05-07T08:13:32.531Z,14.30
2019-05-07T08:16:02.608Z,13.60
2019-05-07T08:18:32.921Z,14.50
2019-05-07T08:21:02.654Z,15.70
2019-05-07T08:23:32.413Z,17.80
2019-05-07T08:26:02.611Z,20.00
2019-05-07T08:28:32.494Z,21.80
2019-05-07T08:31:04.886Z,22.40
2019-05-07T08:33:36.216Z,21.30
2019-05-07T08:36:12.004Z,19.90
2019-05-07T08:38:57.655Z,17.60
2019-05-07T08:41:28.883Z,16.10
2019-05-07T08:44:09.097Z,15.00
2019-05-07T08:46:38.733Z,14.00
2019-05-07T08:49:13.472Z,13.90
2019-05-07T08:51:43.222Z,13.60
2019-05-07T08:54:12.960Z,12.50
2019-05-07T08:56:42.922Z,12.00
2019-05-07T08:59:12.658Z,13.10
2019-05-07T09:01:43.497Z,13.60
2019-05-07T09:04:13.637Z,13.80
2019-05-07T09:06:46.275Z,13.60
2019-05-07T09:09:16.003Z,12.90
2019-05-07T09:11:45.740Z,12.40
2019-05-07T09:14:15.503Z,12.30
2019-05-07T09:16:45.375Z,12.00
2019-05-07T09:19:15.177Z,12.20
2019-05-07T09:21:45.219Z,15.80
2019-05-07T09:24:14.964Z,17.20
2019-05-07T09:27:05.475Z,16.00
2019-05-07T09:29:42.868Z,15.40
2019-05-07T09:32:17.018Z,14.80
2019-05-07T09:34:48.325Z,14.20
2019-05-07T09:37:19.664Z,13.50
2019-05-07T09:39:49.391Z,14.70
2019-05-07T09:42:19.184Z,16.70
2019-05-07T09:44:48.910Z,17.90
2019-05-07T09:47:18.660Z,19.00
2019-05-07T09:50:02.042Z,18.40
2019-05-07T09:52:19.746Z,17.50
2019-05-07T09:54:51.962Z,15.50
2019-05-07T09:57:30.044Z,13.70
2019-05-07T09:59:53.034Z,13.50
2019-05-07T10:02:23.272Z,15.20
2019-05-07T10:04:53.139Z,16.70
2019-05-07T10:07:23.027Z,18.50
2019-05-07T10:09:52.772Z,20.00
2019-05-07T10:12:24.195Z,17.70
2019-05-07T10:14:54.026Z,16.30
2019-05-07T10:17:25.398Z,15.40
2019-05-07T10:19:55.346Z,14.90
2019-05-07T10:22:25.100Z,16.00
2019-05-07T10:24:55.463Z,17.30
2019-05-07T10:27:25.308Z,19.00
2019-05-07T10:29:55.386Z,18.00
2019-05-07T10:32:25.189Z,17.20
2019-05-07T10:34:55.033Z,16.10
2019-05-07T10:37:24.758Z,14.30
2019-05-07T10:39:54.848Z,13.90
2019-05-07T10:42:24.587Z,13.30
2019-05-07T10:44:58.802Z,13.50
2019-05-07T10:47:46.015Z,14.00
2019-05-07T10:50:17.676Z,14.50
2019-05-07T10:52:47.422Z,14.40
2019-05-07T10:55:17.176Z,13.60
2019-05-07T10:57:46.959Z,12.60
2019-05-07T11:00:18.846Z,12.40
2019-05-07T11:02:48.616Z,12.30
2019-05-07T11:05:18.659Z,12.30
2019-05-07T11:07:48.499Z,12.30
2019-05-07T11:10:18.869Z,12.50
2019-05-07T11:12:48.599Z,12.60
2019-05-07T11:15:18.568Z,12.80
2019-05-07T11:17:52.113Z,12.80
2019-05-07T11:20:22.634Z,12.80
2019-05-07T11:22:52.559Z,12.80
2019-05-07T11:25:22.622Z,12.60
2019-05-07T11:27:52.547Z,12.20
2019-05-07T11:30:23.523Z,12.60
2019-05-07T11:32:53.396Z,12.90
2019-05-07T11:35:23.203Z,12.90
2019-05-07T11:37:53.693Z,12.70
2019-05-07T11:40:24.248Z,13.10
2019-05-07T11:43:08.759Z,13.50
2019-05-07T11:45:46.125Z,13.60
2019-05-07T11:48:18.637Z,13.80
2019-05-07T11:51:00.571Z,13.30
2019-05-07T11:53:25.004Z,13.10
2019-05-07T11:55:54.704Z,13.00
2019-05-07T11:58:24.445Z,12.80
2019-05-07T12:00:56.739Z,12.70
2019-05-07T12:03:26.465Z,12.90
2019-05-07T12:05:56.206Z,12.90
2019-05-07T12:08:37.412Z,12.60
2019-05-07T12:10:57.366Z,12.40
2019-05-07T12:13:27.123Z,12.80
2019-05-07T12:15:56.859Z,13.10
2019-05-07T12:18:26.775Z,13.10
2019-05-07T12:20:56.520Z,12.60
2019-05-07T12:23:26.278Z,12.70
2019-05-07T12:25:57.034Z,12.30
2019-05-07T12:28:26.745Z,12.20
2019-05-07T12:30:58.099Z,11.90
2019-05-07T12:33:45.576Z,11.80
2019-05-07T12:36:16.496Z,11.60
2019-05-07T12:38:47.217Z,11.50
2019-05-07T12:41:35.426Z,11.50
2019-05-07T12:44:07.438Z,11.60
2019-05-07T12:46:37.480Z,11.80
2019-05-07T12:49:07.529Z,11.60
2019-05-07T12:51:38.879Z,11.50
2019-05-07T12:54:11.929Z,11.60
2019-05-07T12:56:42.672Z,11.70
2019-05-07T12:59:13.640Z,11.90
2019-05-07T13:01:46.705Z,12.20
2019-05-07T13:04:22.091Z,12.50
2019-05-07T13:06:57.285Z,12.80
2019-05-07T13:09:27.082Z,12.60
2019-05-07T13:11:56.852Z,12.90
2019-05-07T13:14:26.606Z,12.90
2019-05-07T13:16:56.343Z,13.00
2019-05-07T13:19:26.089Z,13.30
2019-05-07T13:21:55.871Z,13.50
2019-05-07T13:24:28.255Z,13.60
2019-05-07T13:26:57.914Z,13.70
2019-05-07T13:29:27.699Z,13.50
2019-05-07T13:31:58.942Z,13.40
2019-05-07T13:34:28.715Z,13.40
2019-05-07T13:37:02.523Z,13.40
2019-05-07T13:39:33.228Z,13.10
2019-05-07T13:42:12.670Z,13.10
2019-05-07T13:44:43.935Z,13.10
2019-05-07T13:47:24.386Z,13.00
2019-05-07T13:49:55.135Z,13.00
2019-05-07T13:52:25.556Z,13.00
2019-05-07T13:54:55.508Z,13.30
2019-05-07T13:57:25.254Z,13.30
2019-05-07T13:59:55.072Z,13.00
2019-05-07T14:02:27.297Z,12.70
2019-05-07T14:04:57.134Z,12.30
2019-05-07T14:07:28.505Z,11.40
2019-05-07T14:09:58.453Z,10.70
2019-05-07T14:12:28.606Z,10.50
2019-05-07T14:14:58.342Z,10.20
2019-05-07T14:17:28.103Z,10.20
2019-05-07T14:19:57.845Z,10.40
2019-05-07T14:22:27.581Z,10.40
2019-05-07T14:24:57.351Z,10.60
2019-05-07T14:27:27.095Z,11.10
2019-05-07T14:29:56.832Z,11.60
2019-05-07T14:32:31.134Z,12.30
2019-05-07T14:35:05.175Z,12.60
2019-05-07T14:37:36.496Z,12.80
2019-05-07T14:40:07.849Z,13.20
2019-05-07T14:42:39.291Z,13.00
2019-05-07T14:45:09.031Z,12.60
2019-05-07T14:47:38.764Z,12.40
2019-05-07T14:50:08.872Z,12.50
2019-05-07T14:52:38.686Z,12.40
2019-05-07T14:55:08.804Z,12.30
2019-05-07T14:57:38.548Z,12.10
2019-05-07T15:00:08.696Z,11.80
2019-05-07T15:02:39.407Z,11.50
2019-05-07T15:05:11.802Z,11.20
2019-05-07T15:07:45.074Z,11.20
2019-05-07T15:10:15.162Z,11.30
2019-05-07T15:12:44.935Z,11.50
2019-05-07T15:15:17.087Z,11.80
2019-05-07T15:17:48.412Z,12.10
2019-05-07T15:20:18.339Z,12.30
2019-05-07T15:22:57.278Z,12.30
2019-05-07T15:25:36.564Z,12.40
2019-05-07T15:28:03.216Z,12.60
2019-05-07T15:30:52.252Z,12.60
2019-05-07T15:33:29.596Z,12.60
2019-05-07T15:36:02.889Z,12.60
2019-05-07T15:38:32.614Z,12.70
2019-05-07T15:41:03.333Z,12.60
2019-05-07T15:43:33.152Z,12.40
2019-05-07T15:46:03.039Z,12.20
2019-05-07T15:48:32.832Z,12.30
2019-05-07T15:51:02.558Z,12.40
2019-05-07T15:53:43.042Z,12.30
2019-05-07T15:56:12.835Z,12.10
2019-05-07T15:58:43.566Z,12.20
2019-05-07T16:01:13.332Z,12.30
2019-05-07T16:03:45.597Z,12.30
2019-05-07T16:06:15.333Z,12.30
2019-05-07T16:08:52.373Z,12.20
2019-05-07T16:11:23.228Z,11.90
2019-05-07T16:14:06.761Z,11.80
2019-05-07T16:16:38.084Z,12.00
2019-05-07T16:19:09.525Z,12.20
2019-05-07T16:21:39.175Z,12.10
2019-05-07T16:24:08.933Z,12.00
2019-05-07T16:26:38.691Z,11.90
2019-05-07T16:29:08.437Z,11.80
2019-05-07T16:31:38.234Z,11.80
2019-05-07T16:34:07.980Z,11.70
2019-05-07T16:36:37.722Z,11.60
2019-05-07T16:39:08.087Z,11.40
2019-05-07T16:41:37.808Z,11.30
2019-05-07T16:44:08.483Z,11.30
2019-05-07T16:46:38.220Z,11.10
2019-05-07T16:49:07.988Z,10.90
2019-05-07T16:51:37.781Z,10.80
2019-05-07T16:54:07.517Z,10.80
2019-05-07T16:56:38.836Z,10.80
2019-05-07T16:59:08.987Z,10.80
2019-05-07T17:01:39.045Z,10.80
2019-05-07T17:04:09.711Z,10.70
2019-05-07T17:06:39.465Z,10.60
2019-05-07T17:09:13.776Z,10.60
2019-05-07T17:11:43.902Z,10.50
2019-05-07T17:14:13.807Z,10.40
2019-05-07T17:16:43.568Z,10.40
2019-05-07T17:19:14.611Z,10.20
2019-05-07T17:21:45.433Z,10.20
2019-05-07T17:24:15.189Z,10.00
2019-05-07T17:26:44.943Z,9.80
2019-05-07T17:29:14.680Z,9.70
2019-05-07T17:31:44.765Z,9.50
2019-05-07T17:34:14.508Z,9.40
2019-05-07T17:36:44.228Z,9.30
2019-05-07T17:39:14.531Z,9.10
2019-05-07T17:41:44.276Z,9.00
2019-05-07T17:44:14.023Z,8.80
2019-05-07T17:46:46.149Z,8.60
2019-05-07T17:49:15.632Z,8.50
2019-05-07T17:51:45.908Z,8.50
2019-05-07T17:54:15.847Z,8.30
2019-05-07T17:56:45.611Z,8.20
2019-05-07T17:59:15.396Z,8.00
2019-05-07T18:01:49.886Z,7.70
2019-05-07T18:04:18.856Z,7.60
2019-05-07T18:06:48.596Z,7.40
2019-05-07T18:09:18.452Z,7.20
2019-05-07T18:11:48.180Z,7.10
2019-05-07T18:14:17.964Z,7.00
2019-05-07T18:16:49.286Z,6.90
2019-05-07T18:19:19.058Z,6.80
2019-05-07T18:21:48.796Z,6.70
2019-05-07T18:24:18.540Z,6.60
2019-05-07T18:26:48.399Z,6.40
2019-05-07T18:29:18.128Z,6.30
2019-05-07T18:31:49.528Z,6.20
2019-05-07T18:34:19.292Z,5.90
2019-05-07T18:36:49.424Z,5.90
2019-05-07T18:39:20.414Z,6.00
2019-05-07T18:41:52.142Z,5.80
2019-05-07T18:44:22.392Z,5.80
2019-05-07T18:46:53.248Z,5.50
2019-05-07T18:49:23.680Z,5.20
2019-05-07T18:51:53.436Z,5.00
2019-05-07T18:54:30.471Z,4.90
2019-05-07T18:56:54.614Z,4.80
2019-05-07T18:59:26.942Z,4.60
2019-05-07T19:01:56.702Z,4.60
2019-05-07T19:04:30.110Z,4.50
2019-05-07T19:06:59.755Z,4.40
2019-05-07T19:09:31.783Z,4.30
2019-05-07T19:12:01.023Z,4.20
2019-05-07T19:14:33.133Z,4.20
2019-05-07T19:17:03.293Z,4.10
2019-05-07T19:19:33.148Z,4.00
2019-05-07T19:22:02.892Z,4.00
2019-05-07T19:24:44.635Z,4.00
2019-05-07T19:27:04.809Z,4.00
2019-05-07T19:29:34.650Z,4.00
2019-05-07T19:32:05.968Z,3.90
2019-05-07T19:34:36.825Z,4.30
2019-05-07T19:37:06.576Z,4.60
2019-05-07T19:39:36.349Z,5.20
2019-05-07T19:42:06.132Z,5.50
2019-05-07T19:44:36.004Z,5.70
2019-05-07T19:47:06.637Z,5.80
2019-05-07T19:49:36.388Z,6.00
2019-05-07T19:52:06.147Z,6.10
2019-05-07T19:54:35.893Z,6.30
2019-05-07T19:57:05.637Z,6.50
2019-05-07T19:59:35.387Z,6.40
2019-05-07T20:02:06.708Z,6.30
2019-05-07T20:04:36.524Z,6.30
2019-05-07T20:07:06.268Z,6.30
2019-05-07T20:09:37.592Z,6.20
2019-05-07T20:12:08.202Z,6.20
2019-05-07T20:14:38.016Z,6.10
2019-05-07T20:17:08.684Z,5.90
2019-05-07T20:19:38.472Z,5.80
2019-05-07T20:22:08.222Z,5.70
2019-05-07T20:24:37.994Z,5.60
2019-05-07T20:27:08.848Z,5.50
2019-05-07T20:29:38.580Z,5.50
2019-05-07T20:32:08.412Z,5.50
2019-05-07T20:34:38.140Z,5.50
2019-05-07T20:37:07.917Z,5.60
2019-05-07T20:39:37.677Z,5.60
2019-05-07T20:42:08.411Z,5.50
2019-05-07T20:44:38.195Z,5.60
2019-05-07T20:47:08.059Z,5.60
2019-05-07T20:49:37.812Z,5.50
2019-05-07T20:52:07.548Z,5.50
2019-05-07T20:54:38.871Z,5.50
2019-05-07T20:57:10.212Z,5.60
2019-05-07T20:59:39.964Z,5.60
2019-05-07T21:02:11.735Z,5.70
2019-05-07T21:04:42.475Z,5.80
2019-05-07T21:07:12.344Z,5.80
2019-05-07T21:09:42.345Z,5.90
2019-05-07T21:12:12.832Z,5.70
2019-05-07T21:14:43.825Z,5.60
2019-05-07T21:17:13.592Z,5.40
2019-05-07T21:19:43.343Z,5.20
2019-05-07T21:22:13.245Z,5.10
2019-05-07T21:24:43.052Z,5.00
2019-05-07T21:27:12.792Z,5.00
2019-05-07T21:29:42.532Z,5.00
2019-05-07T21:32:12.564Z,4.80
2019-05-07T21:34:42.420Z,4.80
2019-05-07T21:37:12.755Z,4.90
2019-05-07T21:39:42.628Z,5.00
2019-05-07T21:42:14.239Z,5.00
2019-05-07T21:44:43.728Z,5.00
2019-05-07T21:47:13.469Z,4.90
2019-05-07T21:49:43.256Z,4.90
2019-05-07T21:52:13.047Z,4.80
2019-05-07T21:54:44.372Z,4.70
2019-05-07T21:57:28.087Z,4.60
2019-05-07T22:00:12.640Z,4.60
2019-05-07T22:02:44.441Z,4.50
2019-05-07T22:05:15.395Z,4.60
2019-05-07T22:07:45.163Z,4.60
2019-05-07T22:10:15.207Z,4.50
2019-05-07T22:12:44.967Z,4.40
2019-05-07T22:15:15.025Z,4.30
2019-05-07T22:17:44.771Z,4.20
2019-05-07T22:20:14.617Z,4.20
2019-05-07T22:22:44.364Z,4.30
2019-05-07T22:25:45.814Z,4.20
2019-05-07T22:28:15.548Z,4.10
2019-05-07T22:31:04.419Z,4.00
2019-05-07T22:33:35.735Z,4.00
2019-05-07T22:36:05.519Z,4.00
2019-05-07T22:38:42.901Z,3.90
2019-05-07T22:41:14.222Z,3.90
2019-05-07T22:43:44.067Z,3.90
2019-05-07T22:46:13.834Z,3.80
2019-05-07T22:48:43.592Z,3.90
2019-05-07T22:51:13.325Z,3.90
2019-05-07T22:53:43.094Z,4.00
2019-05-07T22:56:14.134Z,4.00
2019-05-07T22:58:48.193Z,4.10
2019-05-07T23:01:19.332Z,4.20
2019-05-07T23:03:49.312Z,4.20
2019-05-07T23:06:20.019Z,4.40
2019-05-07T23:08:49.784Z,4.40
2019-05-07T23:11:19.534Z,4.50
2019-05-07T23:13:49.288Z,4.50
2019-05-07T23:16:19.045Z,4.50
2019-05-07T23:18:48.791Z,4.50
2019-05-07T23:21:24.395Z,4.50
2019-05-07T23:23:52.864Z,4.60
2019-05-07T23:26:23.445Z,4.60
2019-05-07T23:28:54.475Z,4.60
2019-05-07T23:31:24.236Z,4.50
2019-05-07T23:33:53.984Z,4.40
2019-05-07T23:36:23.735Z,4.40
2019-05-07T23:38:53.493Z,4.30
2019-05-07T23:41:34.054Z,4.20
2019-05-07T23:44:12.493Z,4.10
2019-05-07T23:46:44.401Z,4.10
2019-05-07T23:49:13.316Z,4.10
2019-05-07T23:51:43.059Z,4.00
2019-05-07T23:54:12.865Z,3.90
2019-05-07T23:56:42.931Z,3.90
2019-05-07T23:59:14.896Z,4.00
